createdAt,value
2022-09-16T00:04:57.518Z,151.53
2022-09-16T00:09:55.716Z,134.63
2022-09-16T00:14:54.162Z,686.17
2022-09-16T00:19:52.601Z,244.47
2022-09-16T00:24:52.212Z,500.63
2022-09-16T00:29:50.495Z,282.70
2022-09-16T00:34:48.970Z,259.63
2022-09-16T00:39:49.930Z,526.93
2022-09-16T00:45:00.640Z,127.93
2022-09-16T00:50:05.148Z,256.07
2022-09-16T00:55:07.623Z,544.97
2022-09-16T01:00:09.598Z,666.17
2022-09-16T01:05:11.379Z,463.53
2022-09-16T01:10:10.643Z,356.13
2022-09-16T01:15:11.070Z,527.10
2022-09-16T01:20:36.523Z,597.20
2022-09-16T01:25:46.493Z,549.87
2022-09-16T01:31:04.215Z,307.13
2022-09-16T01:36:16.976Z,392.10
2022-09-16T01:41:24.518Z,733.93
2022-09-16T01:46:29.819Z,124.73
2022-09-16T01:51:32.831Z,664.40
2022-09-16T01:56:40.943Z,367.80
2022-09-16T02:01:47.864Z,677.63
2022-09-16T02:06:47.599Z,292.80
2022-09-16T02:11:51.349Z,418.07
2022-09-16T02:16:56.095Z,367.87
2022-09-16T02:21:57.026Z,55.57
2022-09-16T02:27:00.809Z,556.47
2022-09-16T02:32:02.807Z,438.00
2022-09-16T02:37:06.051Z,304.50
2022-09-16T02:42:04.702Z,648.97
2022-09-16T02:47:12.053Z,694.40
2022-09-16T02:52:17.470Z,692.40
2022-09-16T02:57:16.312Z,318.43
2022-09-16T03:02:15.830Z,723.30
2022-09-16T03:07:15.282Z,644.23
2022-09-16T03:12:41.875Z,196.40
2022-09-16T03:17:55.497Z,575.93
2022-09-16T03:23:07.232Z,730.13
2022-09-16T03:28:11.147Z,732.07
2022-09-16T03:33:17.474Z,187.47
2022-09-16T03:38:17.189Z,781.10
2022-09-16T03:43:17.211Z,321.90
2022-09-16T03:48:16.827Z,212.30
2022-09-16T03:53:15.104Z,410.23
2022-09-16T03:58:13.272Z,677.30
2022-09-16T04:03:11.402Z,688.77
2022-09-16T04:08:10.947Z,197.43
2022-09-16T04:13:09.615Z,482.57
2022-09-16T04:18:07.843Z,259.70
2022-09-16T04:23:06.067Z,601.93
2022-09-16T04:28:05.577Z,437.23
2022-09-16T04:33:03.741Z,594.57
2022-09-16T04:38:01.866Z,299.10
2022-09-16T04:43:00.110Z,209.53
2022-09-16T04:47:59.922Z,378.27
2022-09-16T04:52:58.271Z,490.13
2022-09-16T04:57:56.436Z,547.30
2022-09-16T05:02:54.952Z,598.87
2022-09-16T05:07:54.585Z,765.70
2022-09-16T05:12:53.325Z,511.60
2022-09-16T05:17:52.001Z,722.57
2022-09-16T05:22:51.595Z,347.00
2022-09-16T05:27:51.135Z,408.20
2022-09-16T05:32:53.873Z,379.90
2022-09-16T05:37:52.415Z,698.80
2022-09-16T05:42:51.911Z,794.23
2022-09-16T05:47:50.344Z,385.13
2022-09-16T05:52:48.884Z,287.47
2022-09-16T05:57:47.124Z,215.17
2022-09-16T06:02:48.243Z,587.97
2022-09-16T06:07:46.699Z,227.63
2022-09-16T06:12:44.961Z,144.10
2022-09-16T06:17:43.097Z,618.17
2022-09-16T06:22:42.609Z,476.97
2022-09-16T06:27:40.785Z,301.60
2022-09-16T06:32:38.993Z,399.30
2022-09-16T06:37:37.131Z,735.60
2022-09-16T06:42:36.785Z,821.83
2022-09-16T06:47:35.180Z,192.63
2022-09-16T06:52:34.033Z,810.37
2022-09-16T06:57:32.504Z,155.97
2022-09-16T07:02:32.275Z,291.00
2022-09-16T07:07:31.922Z,643.23
2022-09-16T07:12:30.160Z,266.97
2022-09-16T07:17:28.553Z,612.27
2022-09-16T07:22:31.552Z,276.77
2022-09-16T07:27:31.200Z,672.83
2022-09-16T07:32:29.373Z,202.47
2022-09-16T07:37:28.889Z,166.53
2022-09-16T07:42:27.148Z,467.27
2022-09-16T07:47:25.538Z,185.80
2022-09-16T07:52:26.023Z,151.87
2022-09-16T07:57:25.745Z,413.87
2022-09-16T08:02:23.984Z,306.73
2022-09-16T08:07:22.222Z,345.27
2022-09-16T08:12:20.480Z,467.57
2022-09-16T08:17:20.099Z,377.30
2022-09-16T08:22:18.243Z,118.63
2022-09-16T08:27:16.431Z,151.07
2022-09-16T08:32:14.705Z,410.70
2022-09-16T08:37:14.209Z,312.73
2022-09-16T08:42:32.738Z,340.20
2022-09-16T08:47:43.227Z,411.87
2022-09-16T08:52:45.014Z,347.10
2022-09-16T08:57:49.872Z,177.63
2022-09-16T09:02:53.791Z,250.17
2022-09-16T09:08:14.025Z,520.00
2022-09-16T09:13:22.895Z,530.87
2022-09-16T09:18:39.047Z,216.10
2022-09-16T09:23:52.050Z,469.40
2022-09-16T09:29:22.150Z,409.77
2022-09-16T09:34:35.923Z,205.03
2022-09-16T09:39:46.706Z,67.73
2022-09-16T09:44:53.426Z,110.83
2022-09-16T09:49:56.145Z,28.73
2022-09-16T09:54:56.755Z,339.07
2022-09-16T10:00:02.088Z,25.43
2022-09-16T10:05:25.995Z,22.23
2022-09-16T10:10:27.767Z,120.97
2022-09-16T10:15:30.102Z,19.13
2022-09-16T10:20:31.684Z,28.50
2022-09-16T10:25:33.148Z,26.17
2022-09-16T10:30:34.257Z,21.93
2022-09-16T10:35:34.705Z,53.53
2022-09-16T10:40:35.443Z,22.13
2022-09-16T10:45:37.547Z,62.63
2022-09-16T10:50:35.836Z,518.13
2022-09-16T10:55:37.888Z,385.70
2022-09-16T11:00:45.965Z,74.03
2022-09-16T11:05:53.815Z,235.63
2022-09-16T11:11:00.310Z,415.60
2022-09-16T11:16:12.880Z,91.17
2022-09-16T11:21:35.912Z,377.43
2022-09-16T11:26:45.988Z,24.83
2022-09-16T11:31:53.672Z,118.50
2022-09-16T11:37:02.969Z,211.43
2022-09-16T11:42:08.265Z,265.63
2022-09-16T11:47:28.615Z,38.73
2022-09-16T11:52:43.370Z,111.67
2022-09-16T11:57:46.975Z,268.97
2022-09-16T12:02:51.341Z,196.43
2022-09-16T12:07:58.348Z,296.93
2022-09-16T12:13:06.243Z,486.83
2022-09-16T12:18:10.652Z,429.27
2022-09-16T12:23:16.985Z,364.70
2022-09-16T12:28:21.511Z,308.43
2022-09-16T12:33:23.736Z,120.70
2022-09-16T12:38:23.324Z,84.07
2022-09-16T12:43:40.804Z,318.87
2022-09-16T12:49:03.299Z,258.20
2022-09-16T12:54:19.339Z,193.90
2022-09-16T12:59:39.981Z,458.10
2022-09-16T13:04:41.845Z,19.93
2022-09-16T13:09:41.658Z,429.10
2022-09-16T13:14:48.833Z,289.83
2022-09-16T13:19:51.067Z,257.53
2022-09-16T13:24:54.702Z,397.57
2022-09-16T13:30:06.014Z,450.23
2022-09-16T13:35:06.367Z,356.73
2022-09-16T13:40:18.650Z,394.70
2022-09-16T13:45:35.567Z,525.47
2022-09-16T13:50:35.612Z,89.03
2022-09-16T13:55:34.313Z,219.03
2022-09-16T14:00:39.022Z,282.57
2022-09-16T14:05:59.091Z,258.37
2022-09-16T14:11:02.880Z,418.03
2022-09-16T14:16:02.882Z,465.87
2022-09-16T14:21:02.791Z,315.23
2022-09-16T14:26:11.625Z,315.20
2022-09-16T14:31:16.493Z,255.63
2022-09-16T14:36:19.866Z,394.57
2022-09-16T14:41:27.033Z,354.40
2022-09-16T14:46:27.443Z,413.97
2022-09-16T14:51:28.514Z,487.40
2022-09-16T14:56:29.126Z,192.27
2022-09-16T15:01:29.282Z,531.00
2022-09-16T15:06:31.503Z,197.17
2022-09-16T15:11:47.639Z,422.63
2022-09-16T15:16:51.477Z,479.97
2022-09-16T15:21:50.177Z,122.13
2022-09-16T15:26:49.134Z,424.63
2022-09-16T15:31:50.354Z,338.97
2022-09-16T15:36:51.150Z,377.70
2022-09-16T15:41:49.641Z,371.50
2022-09-16T15:46:50.426Z,405.10
2022-09-16T15:51:51.420Z,249.57
2022-09-16T15:56:59.021Z,266.57
2022-09-16T16:02:00.865Z,369.03
2022-09-16T16:43:40.997Z,3.30
2022-09-16T16:48:40.031Z,5.70
2022-09-16T16:53:38.878Z,2.17
2022-09-16T16:58:37.791Z,4.20
2022-09-16T17:03:37.678Z,4.87
2022-09-16T17:08:37.918Z,2.60
2022-09-16T17:13:36.641Z,2.70
2022-09-16T17:18:35.505Z,6.87
2022-09-16T17:23:35.692Z,2.70
2022-09-16T17:28:34.211Z,2.97
2022-09-16T17:33:32.364Z,0.90
2022-09-16T17:38:31.005Z,1.57
2022-09-16T17:43:32.654Z,3.30
2022-09-16T17:48:31.954Z,2.80
2022-09-16T17:53:30.479Z,1.43
2022-09-16T17:58:30.160Z,0.70
2022-09-16T18:03:29.287Z,6.53
2022-09-16T18:08:31.126Z,4.43
2022-09-16T18:13:30.638Z,1.97
2022-09-16T18:18:28.769Z,3.70
2022-09-16T18:23:27.495Z,1.70
2022-09-16T18:28:26.070Z,0.80
2022-09-16T18:39:36.653Z,1.93
2022-09-16T18:44:34.724Z,2.10
2022-09-16T18:49:32.949Z,4.57
2022-09-16T18:54:31.179Z,2.93
2022-09-16T18:59:32.793Z,3.23
2022-09-16T19:04:33.539Z,4.17
2022-09-16T19:09:31.908Z,2.70
2022-09-16T19:14:31.448Z,1.80
2022-09-16T19:19:29.727Z,1.23
2022-09-16T19:24:28.111Z,1.40
2022-09-16T19:29:26.354Z,1.47
2022-09-16T19:34:25.890Z,10.60
2022-09-16T19:39:24.735Z,1.00
2022-09-16T19:44:23.147Z,2.57
2022-09-16T19:49:22.971Z,0.90
2022-09-16T19:54:24.194Z,1.27
2022-09-16T19:59:22.657Z,1.10
2022-09-16T20:04:21.118Z,2.67
2022-09-16T20:09:20.133Z,1.70
2022-09-16T20:14:21.788Z,1.83
2022-09-16T20:19:20.792Z,2.33
2022-09-16T20:24:21.183Z,1.37
2022-09-16T20:29:21.463Z,2.27
2022-09-16T20:34:24.235Z,3.53
2022-09-16T20:39:22.813Z,3.03
2022-09-16T20:44:22.357Z,1.43
2022-09-16T20:49:23.042Z,4.43
2022-09-16T20:54:21.352Z,2.10
2022-09-16T20:59:21.499Z,2.50
2022-09-16T21:04:21.921Z,2.17
2022-09-16T21:09:20.094Z,1.37
2022-09-16T21:14:21.558Z,1.10
2022-09-16T21:19:21.192Z,1.37
2022-09-16T21:24:19.500Z,1.67
2022-09-16T21:29:20.854Z,5.70
2022-09-16T21:34:21.832Z,1.37
2022-09-16T21:39:21.850Z,2.70
2022-09-16T21:44:20.028Z,4.67
2022-09-16T21:49:22.434Z,2.80
2022-09-16T21:54:20.876Z,2.20
2022-09-16T21:59:20.372Z,3.17
2022-09-16T22:04:21.974Z,1.67
2022-09-16T22:09:20.121Z,3.27
2022-09-16T22:14:20.890Z,2.20
2022-09-16T22:19:21.468Z,2.43
2022-09-16T22:24:21.518Z,1.00
2022-09-16T22:29:20.258Z,1.90
2022-09-16T22:34:18.462Z,1.57
2022-09-16T22:39:19.809Z,4.63
2022-09-16T22:44:17.876Z,1.97
2022-09-16T22:49:16.865Z,1.37
2022-09-16T22:54:15.830Z,1.97
2022-09-16T22:59:18.685Z,4.60
2022-09-16T23:04:17.350Z,2.13
2022-09-16T23:09:16.098Z,1.43
2022-09-16T23:14:20.786Z,3.80
2022-09-16T23:19:19.301Z,1.60
2022-09-16T23:24:19.351Z,1.90
2022-09-16T23:29:19.364Z,2.03
2022-09-16T23:34:19.463Z,4.03
2022-09-16T23:39:18.353Z,3.73
2022-09-16T23:44:19.136Z,2.60
2022-09-16T23:49:20.268Z,2.10
2022-09-16T23:54:18.416Z,2.27
2022-09-16T23:59:18.048Z,2.30
